createdAt,value
2019-03-31T00:01:50.486Z,51.20
2019-03-31T00:04:21.537Z,52.03
2019-03-31T00:06:52.532Z,52.48
2019-03-31T00:09:24.007Z,52.42
2019-03-31T00:11:55.038Z,51.69
2019-03-31T00:14:26.113Z,51.84
2019-03-31T00:16:57.346Z,51.52
2019-03-31T00:19:28.342Z,51.60
2019-03-31T00:21:59.375Z,51.23
2019-03-31T00:24:30.467Z,51.95
2019-03-31T00:27:01.589Z,51.87
2019-03-31T00:29:32.621Z,52.10
2019-03-31T00:32:03.629Z,51.79
2019-03-31T00:34:34.656Z,51.75
2019-03-31T00:37:07.687Z,51.83
2019-03-31T00:39:38.493Z,51.79
2019-03-31T00:42:09.498Z,51.84
2019-03-31T00:44:40.554Z,51.88
2019-03-31T00:47:11.552Z,51.81
2019-03-31T00:49:42.593Z,52.38
2019-03-31T00:52:13.572Z,52.31
2019-03-31T00:54:44.713Z,52.35
2019-03-31T00:57:15.706Z,52.62
2019-03-31T00:59:46.701Z,52.64
2019-03-31T01:02:22.037Z,52.78
2019-03-31T01:04:53.249Z,52.75
2019-03-31T01:07:26.970Z,52.72
2019-03-31T01:09:58.787Z,52.89
2019-03-31T01:12:30.044Z,52.91
2019-03-31T01:15:01.315Z,52.91
2019-03-31T01:17:32.583Z,53.10
2019-03-31T01:20:03.898Z,52.96
2019-03-31T01:22:34.998Z,53.16
2019-03-31T01:25:06.530Z,53.82
2019-03-31T01:27:37.558Z,54.17
2019-03-31T01:30:10.374Z,54.28
2019-03-31T01:32:41.984Z,54.50
2019-03-31T01:35:13.261Z,54.90
2019-03-31T01:37:44.293Z,54.79
2019-03-31T01:40:15.698Z,55.67
2019-03-31T01:42:46.681Z,56.18
2019-03-31T01:45:17.816Z,55.79
2019-03-31T01:47:49.008Z,55.78
2019-03-31T01:50:21.279Z,55.55
2019-03-31T01:52:52.320Z,55.37
2019-03-31T01:55:23.614Z,55.80
2019-03-31T01:57:54.660Z,55.68
2019-03-31T02:00:36.466Z,55.69
2019-03-31T02:03:07.703Z,56.13
2019-03-31T02:05:38.845Z,55.76
2019-03-31T02:08:10.384Z,55.68
2019-03-31T02:10:41.395Z,55.55
2019-03-31T02:13:12.485Z,55.46
2019-03-31T02:15:43.577Z,55.58
2019-03-31T02:18:14.579Z,55.48
2019-03-31T02:20:45.627Z,55.52
2019-03-31T02:23:16.618Z,55.56
2019-03-31T02:25:47.654Z,55.74
2019-03-31T02:28:18.657Z,55.38
2019-03-31T02:30:49.701Z,56.00
2019-03-31T02:33:20.699Z,56.00
2019-03-31T02:35:51.789Z,57.92
2019-03-31T02:38:22.825Z,57.39
2019-03-31T02:40:53.827Z,58.20
2019-03-31T02:43:24.848Z,57.59
2019-03-31T02:45:55.859Z,57.85
2019-03-31T02:48:26.880Z,57.85
2019-03-31T02:50:58.008Z,57.84
2019-03-31T02:53:29.106Z,57.39
2019-03-31T02:56:00.745Z,57.39
2019-03-31T02:58:32.349Z,57.96
2019-03-31T03:01:04.379Z,57.33
2019-03-31T03:03:37.536Z,57.16
2019-03-31T03:06:10.067Z,57.05
2019-03-31T03:08:42.923Z,57.02
2019-03-31T03:11:17.763Z,56.51
2019-03-31T03:13:50.862Z,56.55
2019-03-31T03:16:22.968Z,56.55
2019-03-31T03:18:54.082Z,56.75
2019-03-31T03:21:25.338Z,56.62
2019-03-31T03:23:56.636Z,56.55
2019-03-31T03:26:27.640Z,56.74
2019-03-31T03:28:58.651Z,57.19
2019-03-31T03:31:29.691Z,57.19
2019-03-31T03:34:00.681Z,56.87
2019-03-31T03:36:31.744Z,56.64
2019-03-31T03:39:02.732Z,56.53
2019-03-31T03:41:33.764Z,56.84
2019-03-31T03:44:04.900Z,56.77
2019-03-31T03:46:35.907Z,57.14
2019-03-31T03:49:06.963Z,57.47
2019-03-31T03:51:39.426Z,57.47
2019-03-31T03:54:10.438Z,57.26
2019-03-31T03:56:41.475Z,57.12
2019-03-31T03:59:12.418Z,57.18
2019-03-31T04:01:44.009Z,57.18
2019-03-31T04:04:14.961Z,57.22
2019-03-31T04:06:45.951Z,57.17
2019-03-31T04:09:16.910Z,57.27
2019-03-31T04:11:47.908Z,57.27
2019-03-31T04:14:18.908Z,57.38
2019-03-31T04:16:49.877Z,57.60
2019-03-31T04:19:20.856Z,57.55
2019-03-31T04:21:51.844Z,57.49
2019-03-31T04:24:22.793Z,57.65
2019-03-31T04:26:53.785Z,58.09
2019-03-31T04:29:24.778Z,57.96
2019-03-31T04:31:55.779Z,57.99
2019-03-31T04:34:26.731Z,58.11
2019-03-31T04:36:57.783Z,58.17
2019-03-31T04:39:28.724Z,57.97
2019-03-31T04:41:59.718Z,58.08
2019-03-31T04:44:30.696Z,57.85
2019-03-31T04:47:01.636Z,57.81
2019-03-31T04:49:32.608Z,57.63
2019-03-31T04:52:03.586Z,57.63
2019-03-31T04:54:34.549Z,57.53
2019-03-31T04:57:05.536Z,57.28
2019-03-31T04:59:36.494Z,56.87
2019-03-31T05:02:07.455Z,56.50
2019-03-31T05:04:38.414Z,55.55
2019-03-31T05:07:09.407Z,55.16
2019-03-31T05:09:40.366Z,54.69
2019-03-31T05:12:11.360Z,54.46
2019-03-31T05:14:42.307Z,54.63
2019-03-31T05:17:13.296Z,53.59
2019-03-31T05:19:44.339Z,53.82
2019-03-31T05:22:15.341Z,53.94
2019-03-31T05:24:46.288Z,53.49
2019-03-31T05:27:17.255Z,52.90
2019-03-31T05:29:48.250Z,52.60
2019-03-31T05:32:19.197Z,52.79
2019-03-31T05:34:50.189Z,51.97
2019-03-31T05:37:21.181Z,51.48
2019-03-31T05:39:52.137Z,50.95
2019-03-31T05:42:23.088Z,50.50
2019-03-31T05:44:54.180Z,49.95
2019-03-31T05:47:25.141Z,49.79
2019-03-31T05:49:56.117Z,49.20
2019-03-31T05:52:27.076Z,48.81
2019-03-31T05:54:58.076Z,47.84
2019-03-31T05:57:29.034Z,47.65
2019-03-31T06:00:00.040Z,47.00
2019-03-31T06:02:30.999Z,46.52
2019-03-31T06:05:02.005Z,46.59
2019-03-31T06:07:32.975Z,46.29
2019-03-31T06:10:04.021Z,46.17
2019-03-31T06:12:35.019Z,45.71
2019-03-31T06:15:06.336Z,44.95
2019-03-31T06:17:37.290Z,44.50
2019-03-31T06:20:08.375Z,44.17
2019-03-31T06:22:39.374Z,42.74
2019-03-31T06:25:10.482Z,42.50
2019-03-31T06:27:41.442Z,42.08
2019-03-31T06:30:12.631Z,41.56
2019-03-31T06:32:43.630Z,41.96
2019-03-31T06:35:14.591Z,41.65
2019-03-31T06:37:45.602Z,41.25
2019-03-31T06:40:16.658Z,40.66
2019-03-31T06:42:47.624Z,40.74
2019-03-31T06:45:18.687Z,40.34
2019-03-31T06:47:49.682Z,40.39
2019-03-31T06:50:20.657Z,39.95
2019-03-31T06:52:51.663Z,39.22
2019-03-31T06:55:22.730Z,39.21
2019-03-31T06:57:53.739Z,39.31
2019-03-31T07:00:24.696Z,39.07
2019-03-31T07:02:55.897Z,38.28
2019-03-31T07:05:26.845Z,38.60
2019-03-31T07:07:57.846Z,38.09
2019-03-31T07:10:28.860Z,37.96
2019-03-31T07:12:59.948Z,38.23
2019-03-31T07:15:31.001Z,37.48
2019-03-31T07:18:01.971Z,36.47
2019-03-31T07:20:33.054Z,36.71
2019-03-31T07:23:04.122Z,37.25
2019-03-31T07:25:37.211Z,37.35
2019-03-31T07:28:07.765Z,36.52
2019-03-31T07:30:38.732Z,36.52
2019-03-31T07:33:09.733Z,36.87
2019-03-31T07:35:40.694Z,37.50
2019-03-31T07:38:11.702Z,36.71
2019-03-31T07:40:42.687Z,36.83
2019-03-31T07:43:13.786Z,36.73
2019-03-31T07:45:44.836Z,36.95
2019-03-31T07:48:15.793Z,36.44
2019-03-31T07:50:46.748Z,36.77
2019-03-31T07:53:17.748Z,36.55
2019-03-31T07:55:48.742Z,36.78
2019-03-31T07:58:19.749Z,35.91
2019-03-31T08:00:50.698Z,35.84
2019-03-31T08:03:21.705Z,35.75
2019-03-31T08:05:52.705Z,35.72
2019-03-31T08:08:23.721Z,35.31
2019-03-31T08:10:54.678Z,35.32
2019-03-31T08:13:25.693Z,35.09
2019-03-31T08:15:56.648Z,34.91
2019-03-31T08:18:27.602Z,35.16
2019-03-31T08:20:58.609Z,34.45
2019-03-31T08:23:29.563Z,34.33
2019-03-31T08:26:00.562Z,34.16
2019-03-31T08:28:31.516Z,33.43
2019-03-31T08:31:02.505Z,33.18
2019-03-31T08:33:33.577Z,33.08
2019-03-31T08:36:04.673Z,33.14
2019-03-31T08:38:35.656Z,33.05
2019-03-31T08:41:06.696Z,32.52
2019-03-31T08:43:37.722Z,32.44
2019-03-31T08:46:08.682Z,32.27
2019-03-31T08:48:39.687Z,32.04
2019-03-31T08:51:10.653Z,31.92
2019-03-31T08:53:41.765Z,31.91
2019-03-31T08:56:12.749Z,31.46
2019-03-31T08:58:43.720Z,31.30
2019-03-31T09:01:16.785Z,31.28
2019-03-31T09:03:47.785Z,31.21
2019-03-31T09:06:18.751Z,31.19
2019-03-31T09:08:49.749Z,31.07
2019-03-31T09:11:20.700Z,31.11
2019-03-31T09:13:51.654Z,30.59
2019-03-31T09:16:22.640Z,30.80
2019-03-31T09:18:53.588Z,29.97
2019-03-31T09:21:24.569Z,30.35
2019-03-31T09:23:55.556Z,30.48
2019-03-31T09:26:26.507Z,30.17
2019-03-31T09:28:57.483Z,29.54
2019-03-31T09:31:28.480Z,29.85
2019-03-31T09:33:59.495Z,29.74
2019-03-31T09:36:30.548Z,30.09
2019-03-31T09:39:01.508Z,29.71
2019-03-31T09:41:32.464Z,29.35
2019-03-31T09:44:03.421Z,29.44
2019-03-31T09:46:34.403Z,29.54
2019-03-31T09:49:05.346Z,30.05
2019-03-31T09:51:36.362Z,29.58
2019-03-31T09:54:07.559Z,28.84
2019-03-31T09:56:38.626Z,28.83
2019-03-31T09:59:09.611Z,28.38
2019-03-31T10:01:40.586Z,28.62
2019-03-31T10:04:11.537Z,28.95
2019-03-31T10:06:42.610Z,29.19
2019-03-31T10:09:13.543Z,29.19
2019-03-31T10:11:44.527Z,29.20
2019-03-31T10:14:15.522Z,29.05
2019-03-31T10:16:46.471Z,29.04
2019-03-31T10:19:17.415Z,29.14
2019-03-31T10:21:48.401Z,29.26
2019-03-31T10:24:19.410Z,29.11
2019-03-31T10:26:50.355Z,28.86
2019-03-31T10:29:21.289Z,28.83
2019-03-31T10:31:52.284Z,28.86
2019-03-31T10:34:23.263Z,28.58
2019-03-31T10:36:54.238Z,28.44
2019-03-31T10:39:25.212Z,28.47
2019-03-31T10:41:56.223Z,28.86
2019-03-31T10:44:27.167Z,28.96
2019-03-31T10:46:58.531Z,29.05
2019-03-31T10:49:29.677Z,29.29
2019-03-31T10:52:00.630Z,29.08
2019-03-31T10:54:31.602Z,28.90
2019-03-31T10:57:02.541Z,28.80
2019-03-31T10:59:33.514Z,28.96
2019-03-31T11:02:04.462Z,29.04
2019-03-31T11:04:35.447Z,28.56
2019-03-31T11:07:06.506Z,28.84
2019-03-31T11:09:37.494Z,28.87
2019-03-31T11:12:08.436Z,28.67
2019-03-31T11:14:39.413Z,28.91
2019-03-31T11:17:10.359Z,29.14
2019-03-31T11:19:41.360Z,29.13
2019-03-31T11:22:19.719Z,29.19
2019-03-31T11:24:50.711Z,29.49
2019-03-31T11:27:21.707Z,29.54
2019-03-31T11:29:52.704Z,29.31
2019-03-31T11:32:23.648Z,29.34
2019-03-31T11:34:54.596Z,29.52
2019-03-31T11:37:25.566Z,29.43
2019-03-31T11:39:56.516Z,29.59
2019-03-31T11:42:27.501Z,29.59
2019-03-31T11:44:58.430Z,29.55
2019-03-31T11:47:29.390Z,29.44
2019-03-31T11:50:00.389Z,29.26
2019-03-31T11:52:31.398Z,29.47
2019-03-31T11:55:02.390Z,29.17
2019-03-31T11:57:33.333Z,28.97
2019-03-31T12:00:04.899Z,29.08
2019-03-31T12:02:35.829Z,29.07
2019-03-31T12:05:07.164Z,29.13
2019-03-31T12:07:46.731Z,29.18
2019-03-31T12:10:11.181Z,29.36
2019-03-31T12:12:42.130Z,29.36
2019-03-31T12:15:13.312Z,29.39
2019-03-31T12:17:44.258Z,29.30
2019-03-31T12:20:15.321Z,29.25
2019-03-31T12:22:46.262Z,29.30
2019-03-31T12:25:19.890Z,29.30
2019-03-31T12:27:49.987Z,29.48
2019-03-31T12:30:29.703Z,29.40
2019-03-31T12:33:00.708Z,29.34
2019-03-31T12:35:31.654Z,29.25
2019-03-31T12:38:02.597Z,29.21
2019-03-31T12:40:35.332Z,29.26
2019-03-31T12:43:06.740Z,29.18
2019-03-31T12:45:37.730Z,29.19
2019-03-31T12:48:08.751Z,29.31
2019-03-31T12:50:39.745Z,29.43
2019-03-31T12:53:10.745Z,29.45
2019-03-31T12:55:41.817Z,29.37
2019-03-31T12:58:12.838Z,29.32
2019-03-31T13:00:44.012Z,28.74
2019-03-31T13:03:16.225Z,28.73
2019-03-31T13:05:47.640Z,28.87
2019-03-31T13:08:18.663Z,28.76
2019-03-31T13:10:49.682Z,28.84
2019-03-31T13:13:20.722Z,29.00
2019-03-31T13:15:52.763Z,29.02
2019-03-31T13:18:23.792Z,28.40
2019-03-31T13:20:54.768Z,28.48
2019-03-31T13:23:25.787Z,28.66
2019-03-31T13:25:56.769Z,28.48
2019-03-31T13:28:27.800Z,28.58
2019-03-31T13:30:58.835Z,28.62
2019-03-31T13:33:29.860Z,28.46
2019-03-31T13:36:01.001Z,28.15
2019-03-31T13:38:31.988Z,28.20
2019-03-31T13:41:03.021Z,28.14
2019-03-31T13:43:34.016Z,28.34
2019-03-31T13:46:05.036Z,28.33
2019-03-31T13:48:36.062Z,28.55
2019-03-31T13:51:07.139Z,28.25
2019-03-31T13:53:38.163Z,28.12
2019-03-31T13:56:09.153Z,28.11
2019-03-31T13:58:41.566Z,28.12
2019-03-31T14:01:13.019Z,27.89
2019-03-31T14:03:43.999Z,27.86
2019-03-31T14:06:15.264Z,27.86
2019-03-31T14:08:46.279Z,27.79
2019-03-31T14:11:17.263Z,27.92
2019-03-31T14:13:48.324Z,27.94
2019-03-31T14:16:19.318Z,28.12
2019-03-31T14:18:50.291Z,28.36
2019-03-31T14:21:21.311Z,28.07
2019-03-31T14:23:52.296Z,28.30
2019-03-31T14:26:23.390Z,28.22
2019-03-31T14:28:54.374Z,28.22
2019-03-31T14:31:25.408Z,28.38
2019-03-31T14:33:56.400Z,28.53
2019-03-31T14:36:27.547Z,28.39
2019-03-31T14:38:58.615Z,28.25
2019-03-31T14:41:29.646Z,28.39
2019-03-31T14:44:00.635Z,28.89
2019-03-31T14:46:31.665Z,28.91
2019-03-31T14:49:02.689Z,29.01
2019-03-31T14:51:33.662Z,29.02
2019-03-31T14:54:04.695Z,29.22
2019-03-31T14:56:35.677Z,29.05
2019-03-31T14:59:06.850Z,28.84
2019-03-31T15:01:37.850Z,28.88
2019-03-31T15:04:08.844Z,28.82
2019-03-31T15:06:39.829Z,29.00
2019-03-31T15:09:10.955Z,29.08
2019-03-31T15:11:43.408Z,29.19
2019-03-31T15:14:14.433Z,29.43
2019-03-31T15:16:48.271Z,29.58
2019-03-31T15:19:18.124Z,29.77
2019-03-31T15:21:49.102Z,29.69
2019-03-31T15:24:20.119Z,29.81
2019-03-31T15:26:51.163Z,29.72
2019-03-31T15:29:22.147Z,29.89
2019-03-31T15:31:53.139Z,30.03
2019-03-31T15:34:24.167Z,30.22
2019-03-31T15:36:55.192Z,30.31
2019-03-31T15:39:26.184Z,30.36
2019-03-31T15:41:57.206Z,30.49
2019-03-31T15:44:28.233Z,30.50
2019-03-31T15:46:59.254Z,30.65
2019-03-31T15:49:30.231Z,30.94
2019-03-31T15:52:01.258Z,31.21
2019-03-31T15:54:32.354Z,31.49
2019-03-31T15:57:03.589Z,31.40
2019-03-31T15:59:34.624Z,31.72
2019-03-31T16:02:05.749Z,31.96
2019-03-31T16:04:36.730Z,31.99
2019-03-31T16:07:07.703Z,32.07
2019-03-31T16:09:38.195Z,32.19
2019-03-31T16:12:08.753Z,32.32
2019-03-31T16:14:39.236Z,32.39
2019-03-31T16:17:09.773Z,32.44
2019-03-31T16:19:40.179Z,32.68
2019-03-31T16:22:10.678Z,32.90
2019-03-31T16:24:43.769Z,33.10
2019-03-31T16:27:14.215Z,33.36
2019-03-31T16:29:44.707Z,33.64
2019-03-31T16:32:15.156Z,33.89
2019-03-31T16:34:45.647Z,34.06
2019-03-31T16:37:16.150Z,34.20
2019-03-31T16:39:46.608Z,34.35
2019-03-31T16:42:17.063Z,34.41
2019-03-31T16:44:58.062Z,34.59
2019-03-31T16:47:19.723Z,34.59
2019-03-31T16:49:50.215Z,34.75
2019-03-31T16:52:20.661Z,34.98
2019-03-31T16:54:51.150Z,35.16
2019-03-31T16:57:21.594Z,35.31
2019-03-31T16:59:52.082Z,35.63
2019-03-31T17:02:22.539Z,35.73
2019-03-31T17:04:53.040Z,35.75
2019-03-31T17:07:23.553Z,36.01
2019-03-31T17:09:53.999Z,36.07
2019-03-31T17:12:24.458Z,36.28
2019-03-31T17:14:54.943Z,36.51
2019-03-31T17:17:25.389Z,37.13
2019-03-31T17:19:55.839Z,36.91
2019-03-31T17:22:26.335Z,37.13
2019-03-31T17:24:56.829Z,37.47
2019-03-31T17:27:27.330Z,37.54
2019-03-31T17:29:57.791Z,37.86
2019-03-31T17:32:28.289Z,38.04
2019-03-31T17:34:58.763Z,38.38
2019-03-31T17:37:29.255Z,38.48
2019-03-31T17:40:05.910Z,38.50
2019-03-31T17:42:31.941Z,38.55
2019-03-31T17:45:02.472Z,38.41
2019-03-31T17:47:32.917Z,38.63
2019-03-31T17:50:03.515Z,38.98
2019-03-31T17:52:33.973Z,39.07
2019-03-31T17:55:05.223Z,39.37
2019-03-31T17:57:35.781Z,39.58
2019-03-31T18:00:08.067Z,39.68
2019-03-31T18:02:38.560Z,39.82
2019-03-31T18:05:09.348Z,39.91
2019-03-31T18:07:39.824Z,40.20
2019-03-31T18:10:20.843Z,39.92
2019-03-31T18:12:42.715Z,40.14
2019-03-31T18:15:13.530Z,40.72
2019-03-31T18:17:44.085Z,40.50
2019-03-31T18:20:14.590Z,40.46
2019-03-31T18:22:45.063Z,40.74
2019-03-31T18:25:15.600Z,40.64
2019-03-31T18:27:46.147Z,40.70
2019-03-31T18:30:17.352Z,40.80
2019-03-31T18:32:47.884Z,40.90
2019-03-31T18:35:18.408Z,41.06
2019-03-31T18:37:48.904Z,40.91
2019-03-31T18:40:19.366Z,41.44
2019-03-31T18:42:49.873Z,41.27
2019-03-31T18:45:20.324Z,41.67
2019-03-31T18:47:50.829Z,41.54
2019-03-31T18:50:21.332Z,41.70
2019-03-31T18:52:51.837Z,41.74
2019-03-31T18:55:39.626Z,42.05
2019-03-31T18:58:22.421Z,42.02
2019-03-31T19:01:20.786Z,42.00
2019-03-31T19:04:01.256Z,42.42
2019-03-31T19:06:46.339Z,42.20
2019-03-31T19:09:43.445Z,42.14
2019-03-31T19:12:45.007Z,42.11
2019-03-31T19:15:43.205Z,42.03
2019-03-31T19:18:36.070Z,42.12
2019-03-31T19:21:43.643Z,41.94
2019-03-31T19:24:33.000Z,42.15
2019-03-31T19:27:37.023Z,42.09
2019-03-31T19:30:41.655Z,42.13
2019-03-31T19:33:45.673Z,42.34
2019-03-31T19:36:37.772Z,42.39
2019-03-31T19:39:32.963Z,42.95
2019-03-31T19:42:20.973Z,42.70
2019-03-31T19:45:03.756Z,43.05
2019-03-31T19:47:49.346Z,43.43
2019-03-31T19:50:38.684Z,43.85
2019-03-31T19:53:36.655Z,43.75
2019-03-31T19:56:24.449Z,43.71
2019-03-31T19:59:07.281Z,44.00
2019-03-31T20:01:59.705Z,44.04
2019-03-31T20:04:52.314Z,44.04
2019-03-31T20:07:41.092Z,43.92
2019-03-31T20:10:42.726Z,44.03
2019-03-31T20:13:30.670Z,44.05
2019-03-31T20:16:23.057Z,44.21
2019-03-31T20:19:22.517Z,44.27
2019-03-31T20:22:20.768Z,44.44
2019-03-31T20:25:10.090Z,44.60
2019-03-31T20:28:05.429Z,44.65
2019-03-31T20:30:48.282Z,44.89
2019-03-31T20:33:36.316Z,45.08
2019-03-31T20:36:25.762Z,45.36
2019-03-31T20:39:30.206Z,45.17
2019-03-31T20:42:13.369Z,45.27
2019-03-31T20:44:43.811Z,45.55
2019-03-31T20:47:14.304Z,45.34
2019-03-31T20:49:44.764Z,45.48
2019-03-31T20:52:15.251Z,45.40
2019-03-31T20:54:45.699Z,45.56
2019-03-31T20:57:16.198Z,45.75
2019-03-31T20:59:46.751Z,46.11
2019-03-31T21:02:17.269Z,46.37
2019-03-31T21:04:47.726Z,46.21
2019-03-31T21:07:18.197Z,46.36
2019-03-31T21:09:48.715Z,46.65
2019-03-31T21:12:19.177Z,46.89
2019-03-31T21:14:49.683Z,46.97
2019-03-31T21:17:20.154Z,47.28
2019-03-31T21:19:50.653Z,47.41
2019-03-31T21:22:21.113Z,47.70
2019-03-31T21:24:51.620Z,47.76
2019-03-31T21:27:22.077Z,48.12
2019-03-31T21:29:52.578Z,48.25
2019-03-31T21:32:23.054Z,48.24
2019-03-31T21:34:53.549Z,48.19
2019-03-31T21:37:23.999Z,48.15
2019-03-31T21:39:54.490Z,48.28
2019-03-31T21:42:24.984Z,48.36
2019-03-31T21:44:55.438Z,48.28
2019-03-31T21:47:25.895Z,48.74
2019-03-31T21:49:56.380Z,48.44
2019-03-31T21:52:26.835Z,48.69
2019-03-31T21:54:57.349Z,48.71
2019-03-31T21:57:27.795Z,48.84
2019-03-31T21:59:58.250Z,48.78
2019-03-31T22:02:28.739Z,48.83
2019-03-31T22:04:59.379Z,48.89
2019-03-31T22:07:29.892Z,49.19
2019-03-31T22:10:00.366Z,49.05
2019-03-31T22:12:30.845Z,49.30
2019-03-31T22:15:01.309Z,49.26
2019-03-31T22:17:31.779Z,49.50
2019-03-31T22:20:02.280Z,49.93
2019-03-31T22:22:32.729Z,49.59
2019-03-31T22:25:03.227Z,49.70
2019-03-31T22:27:33.672Z,49.73
2019-03-31T22:30:04.704Z,49.64
2019-03-31T22:32:35.154Z,49.69
2019-03-31T22:35:05.809Z,49.73
2019-03-31T22:37:36.275Z,50.08
2019-03-31T22:40:07.184Z,50.29
2019-03-31T22:42:37.692Z,50.33
2019-03-31T22:45:08.392Z,50.56
2019-03-31T22:47:38.846Z,50.46
2019-03-31T22:50:09.594Z,50.80
2019-03-31T22:52:40.076Z,50.70
2019-03-31T22:55:10.518Z,51.21
2019-03-31T22:57:41.001Z,50.61
2019-03-31T23:00:20.125Z,50.82
2019-03-31T23:02:50.625Z,51.21
2019-03-31T23:05:21.184Z,50.68
2019-03-31T23:07:51.714Z,51.23
2019-03-31T23:10:22.209Z,51.99
2019-03-31T23:12:52.660Z,51.16
2019-03-31T23:15:23.144Z,51.12
2019-03-31T23:17:53.608Z,51.17
2019-03-31T23:20:24.112Z,52.15
2019-03-31T23:22:54.598Z,52.27
2019-03-31T23:25:25.047Z,51.92
2019-03-31T23:27:55.539Z,51.63
2019-03-31T23:30:26.009Z,52.42
2019-03-31T23:32:56.555Z,52.16
2019-03-31T23:35:26.986Z,52.82
2019-03-31T23:37:57.478Z,53.07
2019-03-31T23:40:27.922Z,53.31
2019-03-31T23:42:58.374Z,53.32
2019-03-31T23:45:32.173Z,53.91
2019-03-31T23:48:01.051Z,53.40
2019-03-31T23:50:31.506Z,52.91
2019-03-31T23:53:01.979Z,52.66
2019-03-31T23:55:32.440Z,52.32
2019-03-31T23:58:02.920Z,52.39
